createdAt,value
2017-01-23T00:00:12.945Z,959.61
2017-01-23T00:01:12.669Z,959.58
2017-01-23T00:02:12.595Z,959.67
2017-01-23T00:03:13.191Z,959.65
2017-01-23T00:04:12.849Z,959.67
2017-01-23T00:05:12.456Z,959.68
2017-01-23T00:06:13.158Z,959.67
2017-01-23T00:07:13.755Z,959.73
2017-01-23T00:08:12.888Z,959.67
2017-01-23T00:09:12.439Z,959.65
2017-01-23T00:10:12.519Z,959.68
2017-01-23T00:11:09.991Z,959.66
2017-01-23T00:12:12.728Z,959.66
2017-01-23T00:13:12.709Z,959.71
2017-01-23T00:14:13.509Z,959.72
2017-01-23T00:15:13.239Z,959.68
2017-01-23T00:16:13.139Z,959.72
2017-01-23T00:17:17.673Z,959.74
2017-01-23T00:18:14.275Z,959.69
2017-01-23T00:19:13.922Z,959.71
2017-01-23T00:20:12.607Z,959.71
2017-01-23T00:21:12.640Z,959.72
2017-01-23T00:22:11.421Z,959.71
2017-01-23T00:23:11.442Z,959.69
2017-01-23T00:24:13.493Z,959.70
2017-01-23T00:25:12.526Z,959.67
2017-01-23T00:26:13.326Z,959.66
2017-01-23T00:27:12.914Z,959.64
2017-01-23T00:28:10.227Z,959.65
2017-01-23T00:29:12.821Z,959.65
2017-01-23T00:30:12.524Z,959.61
2017-01-23T00:31:12.620Z,959.62
2017-01-23T00:32:14.135Z,959.61
2017-01-23T00:33:12.604Z,959.55
2017-01-23T00:34:13.028Z,959.56
2017-01-23T00:35:14.415Z,959.59
2017-01-23T00:36:11.231Z,959.54
2017-01-23T00:37:13.077Z,959.48
2017-01-23T00:38:11.988Z,959.51
2017-01-23T00:39:12.537Z,959.48
2017-01-23T00:40:12.616Z,959.48
2017-01-23T00:41:12.644Z,959.46
2017-01-23T00:42:11.276Z,959.47
2017-01-23T00:43:10.935Z,959.45
2017-01-23T00:44:12.520Z,959.54
2017-01-23T00:45:12.468Z,959.51
2017-01-23T00:46:13.960Z,959.52
2017-01-23T00:47:12.746Z,959.49
2017-01-23T00:48:13.718Z,959.53
2017-01-23T00:49:13.903Z,959.54
2017-01-23T00:50:12.017Z,959.52
2017-01-23T00:51:12.087Z,959.52
2017-01-23T00:52:12.713Z,959.50
2017-01-23T00:53:13.388Z,959.52
2017-01-23T00:54:14.252Z,959.52
2017-01-23T00:55:14.979Z,959.55
2017-01-23T00:56:12.579Z,959.54
2017-01-23T00:57:12.566Z,959.56
2017-01-23T00:58:13.545Z,959.53
2017-01-23T00:59:13.272Z,959.56
2017-01-23T01:00:11.092Z,959.54
2017-01-23T01:01:13.621Z,959.54
2017-01-23T01:02:15.580Z,959.58
2017-01-23T01:03:13.453Z,959.54
2017-01-23T01:04:15.756Z,959.56
2017-01-23T01:05:13.620Z,959.57
2017-01-23T01:06:13.006Z,959.53
2017-01-23T01:07:12.869Z,959.55
2017-01-23T01:08:14.617Z,959.53
2017-01-23T01:09:12.644Z,959.56
2017-01-23T01:10:14.847Z,959.54
2017-01-23T01:11:11.922Z,959.58
2017-01-23T01:12:14.497Z,959.54
2017-01-23T01:13:12.413Z,959.56
2017-01-23T01:14:12.602Z,959.56
2017-01-23T01:15:14.122Z,959.51
2017-01-23T01:16:12.477Z,959.53
2017-01-23T01:17:12.593Z,959.52
2017-01-23T01:18:13.031Z,959.50
2017-01-23T01:19:15.705Z,959.52
2017-01-23T01:20:14.374Z,959.49
2017-01-23T01:21:13.254Z,959.49
2017-01-23T01:22:12.729Z,959.47
2017-01-23T01:23:14.862Z,959.50
2017-01-23T01:24:13.979Z,959.50
2017-01-23T01:25:15.579Z,959.51
2017-01-23T01:26:12.882Z,959.54
2017-01-23T01:27:15.054Z,959.53
2017-01-23T01:28:12.860Z,959.51
2017-01-23T01:29:13.013Z,959.55
2017-01-23T01:30:13.838Z,959.50
2017-01-23T01:31:12.420Z,959.53
2017-01-23T01:32:12.449Z,959.53
2017-01-23T01:33:13.976Z,959.55
2017-01-23T01:34:13.491Z,959.55
2017-01-23T01:35:13.847Z,959.53
2017-01-23T01:36:13.323Z,959.55
2017-01-23T01:37:13.505Z,959.57
2017-01-23T01:38:11.263Z,959.55
2017-01-23T01:39:14.752Z,959.55
2017-01-23T01:40:13.733Z,959.63
2017-01-23T01:41:13.322Z,959.54
2017-01-23T01:42:14.641Z,959.57
2017-01-23T01:43:13.758Z,959.57
2017-01-23T01:44:12.425Z,959.55
2017-01-23T01:45:12.463Z,959.56
2017-01-23T01:46:14.318Z,959.59
2017-01-23T01:47:11.291Z,959.55
2017-01-23T01:48:14.332Z,959.56
2017-01-23T01:49:12.305Z,959.56
2017-01-23T01:50:12.312Z,959.58
2017-01-23T01:51:09.662Z,959.57
2017-01-23T01:52:11.092Z,959.60
2017-01-23T01:53:13.914Z,959.60
2017-01-23T01:54:12.455Z,959.63
2017-01-23T01:55:13.946Z,959.65
2017-01-23T01:56:13.021Z,959.66
2017-01-23T01:57:11.928Z,959.67
2017-01-23T01:58:12.488Z,959.66
2017-01-23T01:59:14.138Z,959.64
2017-01-23T02:00:12.811Z,959.64
2017-01-23T02:01:11.160Z,959.60
2017-01-23T02:02:14.518Z,959.63
2017-01-23T02:03:14.021Z,959.67
2017-01-23T02:04:13.670Z,959.67
2017-01-23T02:05:12.823Z,959.69
2017-01-23T02:06:12.391Z,959.65
2017-01-23T02:07:12.818Z,959.66
2017-01-23T02:08:12.733Z,959.71
2017-01-23T02:09:11.842Z,959.70
2017-01-23T02:10:13.381Z,959.71
2017-01-23T02:11:12.329Z,959.67
2017-01-23T02:12:13.237Z,959.66
2017-01-23T02:13:13.850Z,959.65
2017-01-23T02:14:12.951Z,959.66
2017-01-23T02:15:13.624Z,959.65
2017-01-23T02:16:12.648Z,959.63
2017-01-23T02:17:13.510Z,959.65
2017-01-23T02:18:14.222Z,959.62
2017-01-23T02:19:13.857Z,959.61
2017-01-23T02:20:12.413Z,959.61
2017-01-23T02:21:13.019Z,959.61
2017-01-23T02:22:10.235Z,959.58
2017-01-23T02:23:13.346Z,959.60
2017-01-23T02:24:13.339Z,959.57
2017-01-23T02:25:12.319Z,959.58
2017-01-23T02:26:12.391Z,959.53
2017-01-23T02:27:13.201Z,959.55
2017-01-23T02:28:12.832Z,959.53
2017-01-23T02:29:13.801Z,959.55
2017-01-23T02:30:13.628Z,959.54
2017-01-23T02:31:13.043Z,959.53
2017-01-23T02:32:12.649Z,959.52
2017-01-23T02:33:10.888Z,959.54
2017-01-23T02:34:11.877Z,959.54
2017-01-23T02:35:10.560Z,959.56
2017-01-23T02:36:13.486Z,959.54
2017-01-23T02:37:13.020Z,959.53
2017-01-23T02:38:12.639Z,959.57
2017-01-23T02:39:13.472Z,959.51
2017-01-23T02:40:13.623Z,959.52
2017-01-23T02:41:13.223Z,959.49
2017-01-23T02:42:12.240Z,959.45
2017-01-23T02:43:12.993Z,959.46
2017-01-23T02:44:09.889Z,959.43
2017-01-23T02:45:12.654Z,959.41
2017-01-23T02:46:13.201Z,959.47
2017-01-23T02:47:13.545Z,959.45
2017-01-23T02:48:12.691Z,959.42
2017-01-23T02:49:14.083Z,959.45
2017-01-23T02:50:12.684Z,959.40
2017-01-23T02:51:12.460Z,959.38
2017-01-23T02:52:12.779Z,959.35
2017-01-23T02:53:12.423Z,959.36
2017-01-23T02:54:13.252Z,959.35
2017-01-23T02:55:12.883Z,959.35
2017-01-23T02:56:12.429Z,959.34
2017-01-23T02:57:14.619Z,959.34
2017-01-23T02:58:14.222Z,959.34
2017-01-23T02:59:13.623Z,959.36
2017-01-23T03:00:14.071Z,959.39
2017-01-23T03:01:13.262Z,959.35
2017-01-23T03:02:13.352Z,959.32
2017-01-23T03:03:12.533Z,959.36
2017-01-23T03:04:13.350Z,959.37
2017-01-23T03:05:13.407Z,959.39
2017-01-23T03:06:13.817Z,959.38
2017-01-23T03:07:11.772Z,959.34
2017-01-23T03:08:11.790Z,959.33
2017-01-23T03:09:12.480Z,959.37
2017-01-23T03:10:13.652Z,959.32
2017-01-23T03:11:13.396Z,959.29
2017-01-23T03:12:13.312Z,959.31
2017-01-23T03:13:12.899Z,959.29
2017-01-23T03:14:12.294Z,959.32
2017-01-23T03:15:12.981Z,959.33
2017-01-23T03:16:12.658Z,959.32
2017-01-23T03:17:11.820Z,959.35
2017-01-23T03:18:12.651Z,959.36
2017-01-23T03:19:13.175Z,959.29
2017-01-23T03:20:12.768Z,959.30
2017-01-23T03:21:10.798Z,959.29
2017-01-23T03:22:13.554Z,959.25
2017-01-23T03:23:13.403Z,959.28
2017-01-23T03:24:13.024Z,959.26
2017-01-23T03:25:13.227Z,959.26
2017-01-23T03:26:14.919Z,959.26
2017-01-23T03:27:12.014Z,959.25
2017-01-23T03:28:13.264Z,959.24
2017-01-23T03:29:12.337Z,959.23
2017-01-23T03:30:12.419Z,959.23
2017-01-23T03:31:13.123Z,959.21
2017-01-23T03:32:12.054Z,959.18
2017-01-23T03:33:11.956Z,959.23
2017-01-23T03:34:12.686Z,959.22
2017-01-23T03:35:13.197Z,959.27
2017-01-23T03:36:13.303Z,959.26
2017-01-23T03:37:11.110Z,959.26
2017-01-23T03:38:12.271Z,959.25
2017-01-23T03:39:11.289Z,959.22
2017-01-23T03:40:11.304Z,959.21
2017-01-23T03:41:13.465Z,959.22
2017-01-23T03:42:13.138Z,959.22
2017-01-23T03:43:12.863Z,959.24
2017-01-23T03:44:12.093Z,959.21
2017-01-23T03:45:10.795Z,959.21
2017-01-23T03:46:12.535Z,959.23
2017-01-23T03:47:13.165Z,959.22
2017-01-23T03:48:11.324Z,959.22
2017-01-23T03:49:12.316Z,959.15
2017-01-23T03:50:13.129Z,959.15
2017-01-23T03:51:13.005Z,959.14
2017-01-23T03:52:12.744Z,959.10
2017-01-23T03:53:12.625Z,959.10
2017-01-23T03:54:13.218Z,959.10
2017-01-23T03:55:10.361Z,959.16
2017-01-23T03:56:12.915Z,959.18
2017-01-23T03:57:11.944Z,959.14
2017-01-23T03:58:12.990Z,959.18
2017-01-23T03:59:12.936Z,959.15
2017-01-23T04:00:10.121Z,959.19
2017-01-23T04:01:11.247Z,959.16
2017-01-23T04:02:12.277Z,959.17
2017-01-23T04:03:13.528Z,959.15
2017-01-23T04:04:13.159Z,959.22
2017-01-23T04:05:13.826Z,959.17
2017-01-23T04:06:12.456Z,959.14
2017-01-23T04:07:12.428Z,959.18
2017-01-23T04:08:12.298Z,959.18
2017-01-23T04:09:11.202Z,959.16
2017-01-23T04:10:14.888Z,959.20
2017-01-23T04:11:12.588Z,959.18
2017-01-23T04:12:13.116Z,959.14
2017-01-23T04:13:10.379Z,959.12
2017-01-23T04:14:13.170Z,959.12
2017-01-23T04:15:12.560Z,959.10
2017-01-23T04:16:14.327Z,959.08
2017-01-23T04:17:12.415Z,959.07
2017-01-23T04:18:14.380Z,959.03
2017-01-23T04:19:12.988Z,959.03
2017-01-23T04:20:13.768Z,959.07
2017-01-23T04:21:12.491Z,959.03
2017-01-23T04:22:15.394Z,959.05
2017-01-23T04:23:13.321Z,959.01
2017-01-23T04:24:12.839Z,959.03
2017-01-23T04:25:12.724Z,959.02
2017-01-23T04:26:14.369Z,958.97
2017-01-23T04:27:12.928Z,958.97
2017-01-23T04:28:10.906Z,959.00
2017-01-23T04:29:13.088Z,959.03
2017-01-23T04:30:13.229Z,958.98
2017-01-23T04:31:13.912Z,959.00
2017-01-23T04:32:11.234Z,959.01
2017-01-23T04:33:12.101Z,959.00
2017-01-23T04:34:12.260Z,959.00
2017-01-23T04:35:13.012Z,959.03
2017-01-23T04:36:12.989Z,958.96
2017-01-23T04:37:12.580Z,959.01
2017-01-23T04:38:13.390Z,959.02
2017-01-23T04:39:11.279Z,959.05
2017-01-23T04:40:12.680Z,959.03
2017-01-23T04:41:11.303Z,959.02
2017-01-23T04:42:13.362Z,959.00
2017-01-23T04:43:12.861Z,959.00
2017-01-23T04:44:12.500Z,959.01
2017-01-23T04:45:15.115Z,959.02
2017-01-23T04:46:12.238Z,959.03
2017-01-23T04:47:10.380Z,959.07
2017-01-23T04:48:14.619Z,959.02
2017-01-23T04:49:12.713Z,959.08
2017-01-23T04:50:11.876Z,959.07
2017-01-23T04:51:10.824Z,959.14
2017-01-23T04:52:12.706Z,959.17
2017-01-23T04:53:13.270Z,959.14
2017-01-23T04:54:12.399Z,959.18
2017-01-23T04:55:12.976Z,959.13
2017-01-23T04:56:12.993Z,959.14
2017-01-23T04:57:10.634Z,959.14
2017-01-23T04:58:12.155Z,959.18
2017-01-23T04:59:12.186Z,959.20
2017-01-23T05:00:12.847Z,959.16
2017-01-23T05:01:13.394Z,959.18
2017-01-23T05:02:13.178Z,959.18
2017-01-23T05:03:12.181Z,959.18
2017-01-23T05:04:13.919Z,959.14
2017-01-23T05:05:12.357Z,959.15
2017-01-23T05:06:12.949Z,959.11
2017-01-23T05:07:13.589Z,959.12
2017-01-23T05:08:12.701Z,959.13
2017-01-23T05:09:13.200Z,959.15
2017-01-23T05:10:12.168Z,959.13
2017-01-23T05:11:12.128Z,959.13
2017-01-23T05:12:12.312Z,959.14
2017-01-23T05:13:12.889Z,959.15
2017-01-23T05:14:12.070Z,959.11
2017-01-23T05:15:12.771Z,959.12
2017-01-23T05:16:12.911Z,959.18
2017-01-23T05:17:13.991Z,959.16
2017-01-23T05:18:12.106Z,959.20
2017-01-23T05:19:12.180Z,959.17
2017-01-23T05:20:12.987Z,959.21
2017-01-23T05:21:11.892Z,959.19
2017-01-23T05:22:12.854Z,959.16
2017-01-23T05:23:14.779Z,959.16
2017-01-23T05:24:12.364Z,959.17
2017-01-23T05:25:13.336Z,959.14
2017-01-23T05:26:13.583Z,959.16
2017-01-23T05:27:13.180Z,959.12
2017-01-23T05:28:13.417Z,959.15
2017-01-23T05:29:14.500Z,959.14
2017-01-23T05:30:12.232Z,959.12
2017-01-23T05:31:11.317Z,959.12
2017-01-23T05:32:12.448Z,959.10
2017-01-23T05:33:12.933Z,959.11
2017-01-23T05:34:13.038Z,959.08
2017-01-23T05:35:12.528Z,959.13
2017-01-23T05:36:11.518Z,959.06
2017-01-23T05:37:13.280Z,959.05
2017-01-23T05:38:13.021Z,959.02
2017-01-23T05:39:12.115Z,959.01
2017-01-23T05:40:12.960Z,958.99
2017-01-23T05:41:12.389Z,958.98
2017-01-23T05:42:12.411Z,959.02
2017-01-23T05:43:12.296Z,959.03
2017-01-23T05:44:12.858Z,959.04
2017-01-23T05:45:12.897Z,959.08
2017-01-23T05:46:11.799Z,959.07
2017-01-23T05:47:12.561Z,959.11
2017-01-23T05:48:14.340Z,959.15
2017-01-23T05:49:12.562Z,959.15
2017-01-23T05:50:12.556Z,959.18
2017-01-23T05:51:12.506Z,959.17
2017-01-23T05:52:12.624Z,959.15
2017-01-23T05:53:12.848Z,959.16
2017-01-23T05:54:12.178Z,959.18
2017-01-23T05:55:12.603Z,959.18
2017-01-23T05:56:13.286Z,959.18
2017-01-23T05:57:12.865Z,959.15
2017-01-23T05:58:12.778Z,959.20
2017-01-23T05:59:13.154Z,959.21
2017-01-23T06:00:12.228Z,959.19
2017-01-23T06:01:12.252Z,959.23
2017-01-23T06:02:12.450Z,959.22
2017-01-23T06:03:13.036Z,959.22
2017-01-23T06:04:12.668Z,959.20
2017-01-23T06:05:13.358Z,959.23
2017-01-23T06:06:13.554Z,959.23
2017-01-23T06:07:13.143Z,959.22
2017-01-23T06:08:13.065Z,959.21
2017-01-23T06:09:13.520Z,959.24
2017-01-23T06:10:12.568Z,959.21
2017-01-23T06:11:11.410Z,959.23
2017-01-23T06:12:13.022Z,959.21
2017-01-23T06:13:12.073Z,959.22
2017-01-23T06:14:13.119Z,959.23
2017-01-23T06:15:12.168Z,959.22
2017-01-23T06:16:12.894Z,959.27
2017-01-23T06:17:12.181Z,959.24
2017-01-23T06:18:10.999Z,959.25
2017-01-23T06:19:11.228Z,959.25
2017-01-23T06:20:13.610Z,959.26
2017-01-23T06:21:13.243Z,959.27
2017-01-23T06:22:13.375Z,959.21
2017-01-23T06:23:12.834Z,959.21
2017-01-23T06:24:12.786Z,959.21
2017-01-23T06:25:12.841Z,959.21
2017-01-23T06:26:10.951Z,959.23
2017-01-23T06:27:12.638Z,959.27
2017-01-23T06:28:13.272Z,959.20
2017-01-23T06:29:13.546Z,959.27
2017-01-23T06:30:16.490Z,959.29
2017-01-23T06:31:13.198Z,959.31
2017-01-23T06:32:13.180Z,959.25
2017-01-23T06:33:10.990Z,959.28
2017-01-23T06:34:13.772Z,959.32
2017-01-23T06:35:11.844Z,959.31
2017-01-23T06:36:12.558Z,959.35
2017-01-23T06:37:13.541Z,959.34
2017-01-23T06:38:12.462Z,959.26
2017-01-23T06:39:12.468Z,959.31
2017-01-23T06:40:12.523Z,959.25
2017-01-23T06:41:12.551Z,959.29
2017-01-23T06:42:14.356Z,959.25
2017-01-23T06:43:12.294Z,959.32
2017-01-23T06:44:12.911Z,959.33
2017-01-23T06:45:12.527Z,959.31
2017-01-23T06:46:12.623Z,959.29
2017-01-23T06:47:13.244Z,959.36
2017-01-23T06:48:12.590Z,959.37
2017-01-23T06:49:12.545Z,959.38
2017-01-23T06:50:13.162Z,959.38
2017-01-23T06:51:12.780Z,959.36
2017-01-23T06:52:11.030Z,959.36
2017-01-23T06:53:12.736Z,959.36
2017-01-23T06:54:09.683Z,959.35
2017-01-23T06:55:13.139Z,959.32
2017-01-23T06:56:12.279Z,959.33
2017-01-23T06:57:12.610Z,959.37
2017-01-23T06:58:10.092Z,959.32
2017-01-23T06:59:12.301Z,959.34
2017-01-23T07:00:12.219Z,959.37
2017-01-23T07:01:12.204Z,959.34
2017-01-23T07:02:12.794Z,959.35
2017-01-23T07:03:10.714Z,959.29
2017-01-23T07:04:12.738Z,959.33
2017-01-23T07:05:10.955Z,959.33
2017-01-23T07:06:12.676Z,959.31
2017-01-23T07:07:12.623Z,959.32
2017-01-23T07:08:15.208Z,959.31
2017-01-23T07:09:12.417Z,959.34
2017-01-23T07:10:14.185Z,959.28
2017-01-23T07:11:12.067Z,959.35
2017-01-23T07:12:12.579Z,959.34
2017-01-23T07:13:12.552Z,959.29
2017-01-23T07:14:13.270Z,959.30
2017-01-23T07:15:13.347Z,959.29
2017-01-23T07:16:12.492Z,959.31
2017-01-23T07:17:13.712Z,959.32
2017-01-23T07:18:11.856Z,959.31
2017-01-23T07:19:14.121Z,959.35
2017-01-23T07:20:12.780Z,959.37
2017-01-23T07:21:12.430Z,959.33
2017-01-23T07:22:13.195Z,959.37
2017-01-23T07:23:12.938Z,959.29
2017-01-23T07:24:11.985Z,959.32
2017-01-23T07:25:11.921Z,959.31
2017-01-23T07:26:11.983Z,959.31
2017-01-23T07:27:12.119Z,959.32
2017-01-23T07:28:12.347Z,959.27
2017-01-23T07:29:13.039Z,959.28
2017-01-23T07:30:12.784Z,959.30
2017-01-23T07:31:11.748Z,959.32
2017-01-23T07:32:12.530Z,959.35
2017-01-23T07:33:14.110Z,959.32
2017-01-23T07:34:13.784Z,959.35
2017-01-23T07:35:12.230Z,959.32
2017-01-23T07:36:12.119Z,959.24
2017-01-23T07:37:12.709Z,959.23
2017-01-23T07:38:12.795Z,959.28
2017-01-23T07:39:12.410Z,959.26
2017-01-23T07:40:12.486Z,959.24
2017-01-23T07:41:13.012Z,959.31
2017-01-23T07:42:12.621Z,959.27
2017-01-23T07:43:12.681Z,959.24
2017-01-23T07:44:11.234Z,959.28
2017-01-23T07:45:13.267Z,959.27
2017-01-23T07:46:12.288Z,959.26
2017-01-23T07:47:12.284Z,959.25
2017-01-23T07:48:13.697Z,959.25
2017-01-23T07:49:12.856Z,959.28
2017-01-23T07:50:12.581Z,959.25
2017-01-23T07:51:10.788Z,959.24
2017-01-23T07:52:11.797Z,959.28
2017-01-23T07:53:11.741Z,959.26
2017-01-23T07:54:13.327Z,959.26
2017-01-23T07:55:12.796Z,959.28
2017-01-23T07:56:12.610Z,959.26
2017-01-23T07:57:13.271Z,959.26
2017-01-23T07:58:12.195Z,959.31
2017-01-23T07:59:12.233Z,959.32
2017-01-23T08:00:13.389Z,959.31
2017-01-23T08:01:13.043Z,959.32
2017-01-23T08:02:10.845Z,959.31
2017-01-23T08:03:10.896Z,959.35
2017-01-23T08:04:13.298Z,959.38
2017-01-23T08:05:12.322Z,959.42
2017-01-23T08:06:12.319Z,959.40
2017-01-23T08:07:13.051Z,959.36
2017-01-23T08:08:13.523Z,959.39
2017-01-23T08:09:13.605Z,959.44
2017-01-23T08:10:12.739Z,959.44
2017-01-23T08:11:12.859Z,959.42
2017-01-23T08:12:12.514Z,959.48
2017-01-23T08:13:15.129Z,959.47
2017-01-23T08:14:12.077Z,959.43
2017-01-23T08:15:12.830Z,959.49
2017-01-23T08:16:11.782Z,959.47
2017-01-23T08:17:12.037Z,959.51
2017-01-23T08:18:11.033Z,959.48
2017-01-23T08:19:12.998Z,959.51
2017-01-23T08:20:12.541Z,959.52
2017-01-23T08:21:13.041Z,959.51
2017-01-23T08:22:12.070Z,959.60
2017-01-23T08:23:12.187Z,959.57
2017-01-23T08:24:12.120Z,959.55
2017-01-23T08:25:12.636Z,959.57
2017-01-23T08:26:12.948Z,959.57
2017-01-23T08:27:11.963Z,959.57
2017-01-23T08:28:11.930Z,959.55
2017-01-23T08:29:13.648Z,959.55
2017-01-23T08:30:13.152Z,959.49
2017-01-23T08:31:12.811Z,959.54
2017-01-23T08:32:11.610Z,959.64
2017-01-23T08:33:13.316Z,959.65
2017-01-23T08:34:12.567Z,959.68
2017-01-23T08:35:12.541Z,959.78
2017-01-23T08:36:12.510Z,959.80
2017-01-23T08:37:13.023Z,959.87
2017-01-23T08:38:09.317Z,959.86
2017-01-23T08:39:12.883Z,959.82
2017-01-23T08:40:11.980Z,959.84
2017-01-23T08:41:13.107Z,959.87
2017-01-23T08:42:15.182Z,959.85
2017-01-23T08:43:12.816Z,959.80
2017-01-23T08:44:11.970Z,959.72
2017-01-23T08:45:11.864Z,959.70
2017-01-23T08:46:11.872Z,959.70
2017-01-23T08:47:11.903Z,959.67
2017-01-23T08:48:12.659Z,959.64
2017-01-23T08:49:13.528Z,959.68
2017-01-23T08:50:11.637Z,959.70
2017-01-23T08:51:13.697Z,959.70
2017-01-23T08:52:12.696Z,959.66
2017-01-23T08:53:11.605Z,959.67
2017-01-23T08:54:16.227Z,959.61
2017-01-23T08:55:12.428Z,959.64
2017-01-23T08:56:13.068Z,959.64
2017-01-23T08:57:12.041Z,959.64
2017-01-23T08:58:13.586Z,959.59
2017-01-23T08:59:13.233Z,959.64
2017-01-23T09:00:12.743Z,959.67
2017-01-23T09:01:12.852Z,959.68
2017-01-23T09:02:11.899Z,959.67
2017-01-23T09:03:11.903Z,959.61
2017-01-23T09:04:12.027Z,959.63
2017-01-23T09:05:12.161Z,959.64
2017-01-23T09:06:12.826Z,959.57
2017-01-23T09:07:12.355Z,959.62
2017-01-23T09:08:12.317Z,959.58
2017-01-23T09:09:11.200Z,959.57
2017-01-23T09:10:12.518Z,959.58
2017-01-23T09:11:11.363Z,959.60
2017-01-23T09:12:13.040Z,959.63
2017-01-23T09:13:12.010Z,959.61
2017-01-23T09:14:12.056Z,959.61
2017-01-23T09:15:13.784Z,959.62
2017-01-23T09:16:11.688Z,959.68
2017-01-23T09:17:12.932Z,959.66
2017-01-23T09:18:11.877Z,959.67
2017-01-23T09:19:12.598Z,959.66
2017-01-23T09:20:13.139Z,959.67
2017-01-23T09:21:12.140Z,959.68
2017-01-23T09:22:12.176Z,959.64
2017-01-23T09:23:12.196Z,959.64
2017-01-23T09:24:12.189Z,959.64
2017-01-23T09:25:13.837Z,959.57
2017-01-23T09:26:11.808Z,959.60
2017-01-23T09:27:13.361Z,959.59
2017-01-23T09:28:13.063Z,959.58
2017-01-23T09:29:12.496Z,959.59
2017-01-23T09:30:13.057Z,959.57
2017-01-23T09:31:12.103Z,959.53
2017-01-23T09:32:12.799Z,959.52
2017-01-23T09:33:11.981Z,959.51
2017-01-23T09:34:11.936Z,959.55
2017-01-23T09:35:12.065Z,959.53
2017-01-23T09:36:12.585Z,959.56
2017-01-23T09:37:13.146Z,959.57
2017-01-23T09:38:13.803Z,959.59
2017-01-23T09:39:11.682Z,959.58
2017-01-23T09:40:13.355Z,959.59
2017-01-23T09:41:12.325Z,959.58
2017-01-23T09:42:12.811Z,959.58
2017-01-23T09:43:11.949Z,959.61
2017-01-23T09:44:12.431Z,959.62
2017-01-23T09:45:12.609Z,959.62
2017-01-23T09:46:12.501Z,959.63
2017-01-23T09:47:12.929Z,959.60
2017-01-23T09:48:13.895Z,959.60
2017-01-23T09:49:10.939Z,959.64
2017-01-23T09:50:12.056Z,959.61
2017-01-23T09:51:10.704Z,959.63
2017-01-23T09:52:10.816Z,959.62
2017-01-23T09:53:11.941Z,959.64
2017-01-23T09:54:12.576Z,959.59
2017-01-23T09:55:12.639Z,959.61
2017-01-23T09:56:11.307Z,959.63
2017-01-23T09:57:12.494Z,959.62
2017-01-23T09:58:14.599Z,959.63
2017-01-23T09:59:12.567Z,959.59
2017-01-23T10:00:14.419Z,959.56
2017-01-23T10:01:14.434Z,959.55
2017-01-23T10:02:13.359Z,959.54
2017-01-23T10:03:14.140Z,959.48
2017-01-23T10:04:12.227Z,959.57
2017-01-23T10:05:14.037Z,959.55
2017-01-23T10:06:12.099Z,959.55
2017-01-23T10:07:12.071Z,959.59
2017-01-23T10:08:12.112Z,959.54
2017-01-23T10:09:09.391Z,959.55
2017-01-23T10:10:13.179Z,959.55
2017-01-23T10:11:12.749Z,959.55
2017-01-23T10:12:13.447Z,959.53
2017-01-23T10:13:12.459Z,959.52
2017-01-23T10:14:12.956Z,959.51
2017-01-23T10:15:10.842Z,959.57
2017-01-23T10:16:12.630Z,959.51
2017-01-23T10:17:11.469Z,959.50
2017-01-23T10:18:13.078Z,959.51
2017-01-23T10:19:12.115Z,959.52
2017-01-23T10:20:12.769Z,959.47
2017-01-23T10:21:14.531Z,959.48
2017-01-23T10:22:13.490Z,959.49
2017-01-23T10:23:12.425Z,959.49
2017-01-23T10:24:11.298Z,959.45
2017-01-23T10:25:12.946Z,959.45
2017-01-23T10:26:12.716Z,959.44
2017-01-23T10:27:12.753Z,959.43
2017-01-23T10:28:13.550Z,959.38
2017-01-23T10:29:12.523Z,959.32
2017-01-23T10:30:12.649Z,959.38
2017-01-23T10:31:13.137Z,959.35
2017-01-23T10:32:12.895Z,959.32
2017-01-23T10:33:12.482Z,959.35
2017-01-23T10:34:12.307Z,959.34
2017-01-23T10:35:12.908Z,959.27
2017-01-23T10:36:11.957Z,959.28
2017-01-23T10:37:11.954Z,959.36
2017-01-23T10:38:12.559Z,959.35
2017-01-23T10:39:13.259Z,959.32
2017-01-23T10:40:12.186Z,959.28
2017-01-23T10:41:12.641Z,959.27
2017-01-23T10:42:12.768Z,959.27
2017-01-23T10:43:12.540Z,959.27
2017-01-23T10:44:11.356Z,959.28
2017-01-23T10:45:12.511Z,959.23
2017-01-23T10:46:12.878Z,959.27
2017-01-23T10:47:12.248Z,959.30
2017-01-23T10:48:13.238Z,959.26
2017-01-23T10:49:10.324Z,959.29
2017-01-23T10:50:16.315Z,959.26
2017-01-23T10:51:12.356Z,959.26
2017-01-23T10:52:13.184Z,959.24
2017-01-23T10:53:12.234Z,959.25
2017-01-23T10:54:12.218Z,959.24
2017-01-23T10:55:13.944Z,959.28
2017-01-23T10:56:11.941Z,959.22
2017-01-23T10:57:11.819Z,959.23
2017-01-23T10:58:12.373Z,959.27
2017-01-23T10:59:13.070Z,959.26
2017-01-23T11:00:12.121Z,959.26
2017-01-23T11:01:12.764Z,959.24
2017-01-23T11:02:14.437Z,959.25
2017-01-23T11:03:13.451Z,959.24
2017-01-23T11:04:12.551Z,959.16
2017-01-23T11:05:14.048Z,959.17
2017-01-23T11:06:12.608Z,959.19
2017-01-23T11:07:13.879Z,959.16
2017-01-23T11:08:14.060Z,959.20
2017-01-23T11:09:12.260Z,959.18
2017-01-23T11:10:12.431Z,959.10
2017-01-23T11:11:13.048Z,959.09
2017-01-23T11:12:12.112Z,959.08
2017-01-23T11:13:13.059Z,959.06
2017-01-23T11:14:13.553Z,959.05
2017-01-23T11:15:12.623Z,959.01
2017-01-23T11:16:13.396Z,958.98
2017-01-23T11:17:13.151Z,959.01
2017-01-23T11:18:11.975Z,959.04
2017-01-23T11:19:12.515Z,959.00
2017-01-23T11:20:12.641Z,959.02
2017-01-23T11:21:14.290Z,959.01
2017-01-23T11:22:11.266Z,959.03
2017-01-23T11:23:14.127Z,959.02
2017-01-23T11:24:12.269Z,959.01
2017-01-23T11:25:13.340Z,959.02
2017-01-23T11:26:13.268Z,959.05
2017-01-23T11:27:13.424Z,959.05
2017-01-23T11:28:12.820Z,959.06
2017-01-23T11:29:11.785Z,959.02
2017-01-23T11:30:12.482Z,959.06
2017-01-23T11:31:13.189Z,959.06
2017-01-23T11:32:12.382Z,959.00
2017-01-23T11:33:12.940Z,959.03
2017-01-23T11:34:12.879Z,958.99
2017-01-23T11:35:11.120Z,958.99
2017-01-23T11:36:12.546Z,958.95
2017-01-23T11:37:13.582Z,958.93
2017-01-23T11:38:12.895Z,958.93
2017-01-23T11:39:12.314Z,958.92
2017-01-23T11:40:12.223Z,958.94
2017-01-23T11:41:13.015Z,958.92
2017-01-23T11:42:12.066Z,958.94
2017-01-23T11:43:12.047Z,958.97
2017-01-23T11:44:12.884Z,958.99
2017-01-23T11:45:13.492Z,958.93
2017-01-23T11:46:13.450Z,958.95
2017-01-23T11:47:13.138Z,958.92
2017-01-23T11:48:12.317Z,958.94
2017-01-23T11:49:10.559Z,958.92
2017-01-23T11:50:12.387Z,958.92
2017-01-23T11:51:12.926Z,958.95
2017-01-23T11:52:12.669Z,958.96
2017-01-23T11:53:12.788Z,958.93
2017-01-23T11:54:11.712Z,958.91
2017-01-23T11:55:12.739Z,958.91
2017-01-23T11:56:13.781Z,958.84
2017-01-23T11:57:11.921Z,958.86
2017-01-23T11:58:12.557Z,958.83
2017-01-23T11:59:13.098Z,958.78
2017-01-23T12:00:10.882Z,958.79
2017-01-23T12:01:11.761Z,958.78
2017-01-23T12:02:11.859Z,958.80
2017-01-23T12:03:13.698Z,958.77
2017-01-23T12:04:13.450Z,958.78
2017-01-23T12:05:12.478Z,958.77
2017-01-23T12:06:11.408Z,958.77
2017-01-23T12:07:12.992Z,958.74
2017-01-23T12:08:12.075Z,958.74
2017-01-23T12:09:12.130Z,958.76
2017-01-23T12:10:12.258Z,958.72
2017-01-23T12:11:12.144Z,958.72
2017-01-23T12:12:10.874Z,958.72
2017-01-23T12:13:12.461Z,958.67
2017-01-23T12:14:12.489Z,958.71
2017-01-23T12:15:12.598Z,958.68
2017-01-23T12:16:13.180Z,958.67
2017-01-23T12:17:12.386Z,958.68
2017-01-23T12:18:12.426Z,958.64
2017-01-23T12:19:13.969Z,958.59
2017-01-23T12:20:13.025Z,958.61
2017-01-23T12:21:12.004Z,958.63
2017-01-23T12:22:13.684Z,958.64
2017-01-23T12:23:13.046Z,958.65
2017-01-23T12:24:14.233Z,958.62
2017-01-23T12:25:12.335Z,958.56
2017-01-23T12:26:13.210Z,958.56
2017-01-23T12:27:11.327Z,958.55
2017-01-23T12:28:12.292Z,958.56